x

Puntas Rincon, Pr (ptrp4) Weather Station

10:55am - Fri 3rd Jul 2015 All times are AST. -4 hours from GMT.

  • Wind
    9mph, 16mph gusts
  • Air Temp 86°f
  • Sea Pressure 1018.3mb
  • Puntas Rincon, Pr
  • Puntas Rincon, Pr

More Historic Weather Station data

Upgrade to MSW Pro to gain access to the past 30 days of data for over 8000 Wavebouys and Weather Stations around the globe.

Join Pro

Comparision Forecast

View Surf forecast
   
Fri 07/03 10:55am 9 16 mph 1018.3mb 86f
10:50am 9 15 mph 1018.3mb 85f
10:45am 7 11 mph 1018.3mb 86f
10:40am 7 11 mph 1018.3mb 86f
10:35am 9 14 mph 1018.3mb 86f
10:30am 8 14 mph 1018.3mb 86f
10:25am 6 14 mph 1018.3mb 87f
10:20am 3 8 mph 1018.3mb 86f
10:15am 5 9 mph 1018.3mb 85f
10:10am 5 10 mph 1018.3mb 86f
10:05am 5 7 mph 1018.3mb 86f
10:00am 5 7 mph 1018.4mb 85f
9:55am 5 8 mph 1018.3mb 86f
9:50am 3 7 mph 1018.3mb 85f
9:45am 3 7 mph 1018.3mb 85f
9:40am 6 10 mph 1018.3mb 85f
9:35am 3 10 mph 1018.3mb 85f
9:30am 2 6 mph 1018.3mb 85f
9:25am 2 6 mph 1018.3mb 84f
9:20am 2 6 mph 1018.3mb 84f
9:15am 2 6 mph 1018.3mb 84f
9:10am 3 6 mph 1018.3mb 83f
9:05am 2 6 mph 1018.4mb 84f
9:00am 2 5 mph 1018.4mb 83f
8:55am 3 6 mph 1018.5mb 83f
8:50am 3 6 mph 1018.5mb 83f
8:45am 1 3 mph 1018.5mb 83f
8:40am 3 6 mph 1018.5mb 82f
8:35am 5 8 mph 1018.4mb 82f
8:30am 3 8 mph 1018.5mb 83f
8:25am 2 6 mph 1018.5mb 82f
8:20am 2 5 mph 1018.5mb 82f
8:15am 2 5 mph 1018.5mb 82f
8:10am 5 7 mph 1018.5mb 81f
8:05am 2 6 mph 1018.5mb 81f
8:00am 2 3 mph 1018.5mb 81f
7:55am 2 6 mph 1018.5mb 81f
7:50am 1 2 mph 1018.5mb 82f
7:45am 2 5 mph 1018.5mb 81f
7:40am 2 5 mph 1018.5mb 81f
7:35am 2 5 mph 1018.3mb 81f
7:30am 2 3 mph 1018.3mb 80f
7:25am 2 3 mph 1018.3mb 80f
7:20am 2 3 mph 1018.3mb 79f
7:15am 1 2 mph 1018.3mb 79f
7:10am 2 3 mph 1018.3mb 79f
7:05am 3 5 mph 1018.3mb 78f
7:00am 3 5 mph 1018.2mb 78f
6:55am 3 5 mph 1018.1mb 78f
6:50am 2 3 mph 1018mb 78f
6:45am 2 5 mph 1018mb 78f
6:40am 2 3 mph 1018mb 78f
6:35am 3 6 mph 1017.9mb 78f
6:30am 2 6 mph 1017.9mb 77f
6:25am 3 5 mph 1017.8mb 77f
6:20am 3 7 mph 1017.7mb 77f
6:15am 3 6 mph 1017.7mb 77f
6:10am 5 7 mph 1017.7mb 77f
6:05am 3 7 mph 1017.7mb 77f
6:00am 3 7 mph 1017.7mb 77f
5:55am 3 7 mph 1017.7mb 77f
5:50am 3 6 mph 1017.7mb 77f
5:45am  -  mph 1017.7mb 77f
5:40am 5 7 mph 1017.7mb 77f
5:35am 3 6 mph 1017.6mb 77f
5:30am 5 7 mph 1017.5mb 77f
5:25am 5 6 mph 1017.5mb 77f
5:20am 5 6 mph 1017.5mb 77f
5:15am 5 6 mph 1017.6mb 77f
5:10am 6 8 mph 1017.6mb 77f
5:05am 6 8 mph 1017.6mb 77f
5:00am 6 8 mph 1017.5mb 77f
4:55am 6 8 mph 1017.4mb 77f
4:50am 6 8 mph 1017.5mb 77f
4:45am 6 8 mph 1017.5mb 77f
4:40am 6 8 mph 1017.4mb 77f
4:35am 3 7 mph 1017.4mb 77f
4:30am 5 8 mph 1017.4mb 77f
4:25am 5 8 mph 1017.4mb 77f
4:20am 5 8 mph 1017.5mb 77f
4:15am 5 8 mph 1017.5mb 77f
4:10am 6 8 mph 1017.6mb 77f
4:05am 6 8 mph 1017.6mb 77f
4:00am 6 8 mph 1017.6mb 77f
3:55am 6 8 mph 1017.7mb 77f
3:50am 5 10 mph 1017.6mb 77f
3:45am 5 8 mph 1017.6mb 77f
3:40am 6 9 mph 1017.6mb 77f
3:35am 6 9 mph 1017.6mb 77f
3:30am 6 8 mph 1017.6mb 77f
3:25am 6 8 mph 1017.6mb 77f
3:20am 5 6 mph 1017.7mb 77f
3:15am 5 7 mph 1017.6mb 78f
3:10am 5 7 mph 1017.6mb 78f
3:05am 5 7 mph 1017.6mb 78f
3:00am 5 8 mph 1017.5mb 78f
2:55am 5 8 mph 1017.4mb 78f
2:50am 5 7 mph 1017.5mb 78f
2:45am 3 6 mph 1017.6mb 78f
2:40am 5 7 mph 1017.6mb 78f
2:35am 5 8 mph 1017.6mb 78f
2:30am 5 7 mph 1017.6mb 78f
2:25am 3 7 mph 1017.6mb 78f
2:20am 3 7 mph 1017.6mb 78f
2:15am 3 7 mph 1017.6mb 78f
2:10am 5 7 mph 1017.6mb 78f
2:05am 3 7 mph 1017.6mb 78f
2:00am 5 8 mph 1017.6mb 78f
1:55am 6 8 mph 1017.7mb 78f
1:50am 5 9 mph 1017.7mb 78f
1:45am 5 8 mph 1017.7mb 78f
1:40am 5 7 mph 1017.7mb 78f
1:35am 5 8 mph 1017.7mb 78f
1:30am 3 7 mph 1017.7mb 78f
1:25am 3 7 mph 1017.7mb 78f
1:20am 3 7 mph 1017.8mb 78f
1:15am 3 6 mph 1017.9mb 78f
1:10am 3 7 mph 1017.9mb 78f
1:05am 5 8 mph 1017.9mb 78f
1:00am 5 9 mph 1018mb 78f
12:55am 5 8 mph 1018mb 78f
12:50am 5 9 mph 1018.1mb 78f
12:45am 5 9 mph 1018.1mb 78f
12:40am 5 9 mph 1018.1mb 79f
12:35am 6 10 mph 1018.2mb 79f
12:30am 6 10 mph 1018.2mb 79f
12:25am 5 9 mph 1018.3mb 79f
12:20am 5 8 mph 1018.3mb 79f
12:15am 6 11 mph 1018.3mb 79f
12:10am 6 11 mph 1018.3mb 79f
12:05am 6 13 mph 1018.3mb 79f
12:00am 8 11 mph 1018.3mb 79f
Thu 07/02 11:55pm 8 13 mph 1018.4mb 79f
11:50pm 8 14 mph 1018.5mb 79f
11:45pm 8 14 mph 1018.6mb 79f
11:40pm 7 15 mph 1018.5mb 79f
11:35pm 8 14 mph 1018.5mb 79f
11:30pm 8 17 mph 1018.5mb 79f
11:25pm 8 15 mph 1018.5mb 80f
11:20pm 8 16 mph 1018.5mb 80f
11:15pm 11 20 mph 1018.4mb 80f
11:10pm 14 23 mph 1018.3mb 80f
11:05pm 11 22 mph 1018.3mb 80f
11:00pm 9 16 mph 1018.3mb 80f
10:55pm 6 13 mph 1018.3mb 80f
10:50pm 6 13 mph 1018.3mb 80f
10:45pm 7 15 mph 1018.3mb 80f
10:40pm 7 11 mph 1018.4mb 80f
10:35pm 6 13 mph 1018.3mb 80f
10:30pm 7 13 mph 1018.3mb 80f
10:25pm 7 14 mph 1018.3mb 80f
10:20pm 6 10 mph 1018.3mb 80f
10:15pm 6 13 mph 1018.3mb 80f
10:10pm 6 11 mph 1018.2mb 80f
10:05pm 8 13 mph 1018.1mb 80f
10:00pm 7 11 mph 1018mb 80f
9:55pm 6 9 mph 1018mb 80f
9:50pm 7 10 mph 1018mb 80f
9:45pm 6 11 mph 1017.9mb 81f
9:40pm 6 11 mph 1017.8mb 81f
9:35pm 6 11 mph 1017.8mb 81f
9:30pm 6 13 mph 1017.7mb 81f
9:25pm 6 9 mph 1017.7mb 81f
9:20pm 6 10 mph 1017.7mb 81f
9:15pm 6 11 mph 1017.7mb 81f
9:10pm 6 11 mph 1017.6mb 82f
9:05pm 6 13 mph 1017.5mb 82f
9:00pm 5 9 mph 1017.5mb 82f
8:55pm 6 10 mph 1017.5mb 82f
8:50pm 8 14 mph 1017.5mb 82f
8:45pm 6 9 mph 1017.5mb 82f
8:40pm 7 10 mph 1017.4mb 82f
8:35pm 7 13 mph 1017.4mb 82f
8:30pm 6 9 mph 1017.3mb 82f
8:25pm 6 9 mph 1017.3mb 83f
8:20pm 6 9 mph 1017.2mb 83f
8:15pm 6 9 mph 1017.2mb 83f
8:10pm 6 10 mph 1017.2mb 83f
8:05pm 6 10 mph 1017.2mb 83f
8:00pm 5 8 mph 1017.1mb 83f
7:55pm 5 8 mph 1017.1mb 83f
7:50pm 5 9 mph 1017.1mb 83f
7:45pm 5 8 mph 1017mb 84f
7:40pm 5 8 mph 1016.9mb 84f
7:30pm 5 7 mph 1016.9mb 84f
7:25pm 5 8 mph 1016.9mb 84f
7:20pm 3 9 mph 1016.9mb 84f
7:15pm 5 6 mph 1016.8mb 84f
7:10pm 3 8 mph 1016.8mb 84f
7:05pm 2 6 mph 1016.6mb 84f
7:00pm 3 7 mph 1016.6mb 84f
6:55pm 3 6 mph 1016.6mb 84f
6:50pm 1 3 mph 1016.5mb 84f
6:45pm  -  2 mph 1016.6mb 85f
6:40pm 1 2 mph 1016.5mb 84f
6:35pm 2 3 mph 1016.5mb 85f
6:30pm 2 5 mph 1016.5mb 85f
6:25pm 1 3 mph 1016.4mb 85f
6:20pm 2 5 mph 1016.3mb 85f
6:15pm 1 3 mph 1016.3mb 85f
6:10pm 2 5 mph 1016.3mb 86f
6:05pm 2 6 mph 1016.3mb 86f
6:00pm 2 6 mph 1016.2mb 86f
5:55pm 2 3 mph 1016.1mb 86f
5:50pm 2 6 mph 1016.1mb 86f
5:45pm 2 7 mph 1016.1mb 86f
5:40pm 2 6 mph 1016.1mb 87f
5:35pm 2 8 mph 1016.1mb 87f
5:30pm 2 5 mph 1016.1mb 87f
5:25pm 3 7 mph 1016.1mb 86f
5:20pm 3 9 mph 1016.1mb 86f
5:15pm 3 9 mph 1016.1mb 86f
5:10pm 5 10 mph 1016.1mb 85f
5:05pm 5 11 mph 1016.1mb -
5:00pm 3 8 mph 1016.1mb -
4:55pm 3 7 mph 1016.1mb -
4:50pm 3 9 mph 1016.1mb -
4:45pm 5 13 mph 1016.1mb -
4:40pm 3 10 mph 1016.1mb -
4:35pm 5 8 mph 1016.1mb 86f
4:30pm 5 9 mph 1016.1mb 86f
4:25pm 3 9 mph 1016.1mb 86f
4:20pm 6 9 mph 1016.1mb 86f
4:15pm 5 10 mph 1016.2mb 86f
4:10pm 2 6 mph 1016.1mb 88f
4:05pm 5 11 mph 1016.1mb 87f
4:00pm 5 10 mph 1016.2mb 86f
3:55pm 5 14 mph 1016.3mb 86f
3:50pm 6 10 mph 1016.4mb 87f
3:45pm 5 11 mph 1016.3mb 87f
3:40pm 3 10 mph 1016.3mb 87f
3:35pm 6 11 mph 1016.3mb 86f
3:30pm 6 11 mph 1016.3mb 87f
3:25pm 5 11 mph 1016.4mb 86f
3:15pm 7 13 mph 1016.4mb 85f
2:45pm 6 10 mph 1016.6mb 88f
2:40pm 7 11 mph 1016.6mb 88f
2:35pm 6 10 mph 1016.6mb 89f
2:30pm 6 9 mph 1016.7mb 88f
2:25pm 7 10 mph 1016.9mb 88f
2:20pm 6 11 mph 1016.7mb 89f
2:15pm 7 11 mph 1016.8mb 88f
Tue 06/30 6:50am 3 8 mph 1018.8mb 78f
6:45am 3 7 mph 1018.8mb 78f
6:40am 3 7 mph 1018.8mb 77f
6:35am 5 8 mph 1018.7mb 77f
6:30am 3 7 mph 1018.6mb 77f
6:25am 5 8 mph 1018.6mb 77f
6:20am 5 7 mph 1018.6mb 77f
6:15am 5 8 mph 1018.5mb 77f
6:10am 3 6 mph 1018.4mb 77f
6:05am 5 7 mph 1018.3mb 77f
6:00am 5 9 mph 1018.3mb 77f
5:55am 5 7 mph 1018.3mb 77f
5:50am 5 8 mph 1018.2mb 77f
5:45am 5 8 mph 1018.2mb 77f
5:40am 5 7 mph 1018.2mb 77f
5:35am 6 8 mph 1018.3mb 77f
5:30am 6 9 mph 1018.3mb 77f
5:25am 5 8 mph 1018.2mb 77f
5:20am 3 6 mph 1018mb 77f
5:15am 3 6 mph 1018mb 77f
5:10am 3 7 mph 1017.9mb 77f
5:05am 3 6 mph 1017.9mb 77f
5:00am 2 5 mph 1017.9mb 77f
4:55am 2 6 mph 1017.9mb 78f
4:50am 3 5 mph 1018mb 78f
4:45am 3 5 mph 1018.1mb 77f
4:40am 3 6 mph 1018mb 77f
4:35am 3 6 mph 1017.8mb 78f
4:30am 3 6 mph 1017.7mb 78f
4:25am 3 7 mph 1017.7mb 78f
4:20am 3 7 mph 1017.7mb 78f
4:15am 5 7 mph 1017.7mb 78f
4:10am 5 8 mph 1017.6mb 78f
4:05am 5 8 mph 1017.6mb 78f
4:00am 5 8 mph 1017.7mb 78f
3:55am 6 8 mph 1017.7mb 78f
3:50am 5 7 mph 1017.7mb 78f
3:45am 6 7 mph 1017.7mb 78f
3:40am 5 6 mph 1017.7mb 78f
3:35am 5 6 mph 1017.8mb 78f
3:30am 3 7 mph 1017.7mb 78f
3:25am 3 6 mph 1017.8mb 78f
3:20am 5 6 mph 1017.8mb 78f
3:15am 3 7 mph 1017.8mb 78f
3:10am 3 7 mph 1017.9mb 78f
3:05am 3 6 mph 1017.8mb 78f
3:00am 3 6 mph 1017.7mb 78f
2:55am 3 6 mph 1017.7mb 78f
2:50am 2 6 mph 1017.6mb 78f
2:45am 3 9 mph 1017.7mb 78f
2:40am 3 7 mph 1017.7mb 78f
2:35am 3 6 mph 1017.7mb 78f
2:30am 2 5 mph 1017.8mb 78f
2:25am 2 6 mph 1017.9mb 78f
2:20am 3 6 mph 1017.9mb 78f
2:15am 3 7 mph 1018mb 78f
2:10am 5 7 mph 1018mb 78f
2:05am 3 7 mph 1018.1mb 78f
2:00am 3 7 mph 1018.2mb 78f
1:55am 3 7 mph 1018.2mb 79f
1:50am 3 6 mph 1018.3mb 79f
1:45am 3 6 mph 1018.3mb 79f
1:40am 2 7 mph 1018.3mb 79f
1:35am 5 9 mph 1018.4mb 79f
1:30am 6 8 mph 1018.5mb 79f
1:25am 6 8 mph 1018.5mb 79f
1:20am 6 9 mph 1018.6mb 79f
1:15am 5 9 mph 1018.7mb 79f
1:10am 5 8 mph 1018.8mb 79f
1:05am 6 9 mph 1018.8mb 79f
1:00am 6 9 mph 1018.8mb 79f
12:55am 5 9 mph 1018.9mb 79f
12:50am 6 10 mph 1018.9mb 79f
12:45am 6 11 mph 1018.9mb 79f
12:40am 6 10 mph 1018.9mb 79f
12:35am 6 10 mph 1019mb 80f
12:30am 5 9 mph 1019mb 79f
12:25am 6 9 mph 1019.2mb 80f
12:20am 5 10 mph 1019.2mb 80f
12:15am 6 11 mph 1019.2mb 80f
12:10am 5 8 mph 1019.2mb 80f
12:05am 5 8 mph 1019.2mb 80f
12:00am 6 10 mph 1019.2mb 80f
Mon 06/29 11:55pm 6 8 mph 1019.4mb 80f
11:50pm 5 7 mph 1019.4mb 80f
11:45pm 5 8 mph 1019.4mb 80f
11:40pm 5 8 mph 1019.4mb 80f
11:35pm 5 8 mph 1019.4mb 80f
11:30pm 5 9 mph 1019.4mb 80f
11:25pm 5 9 mph 1019.4mb 80f
11:20pm 5 9 mph 1019.4mb 80f
11:15pm 5 9 mph 1019.4mb 80f
11:10pm 6 10 mph 1019.4mb 80f
11:05pm 5 9 mph 1019.4mb 80f
11:00pm 5 9 mph 1019.5mb 80f
10:55pm 5 9 mph 1019.6mb 80f
10:50pm 3 6 mph 1019.7mb 80f
10:45pm 5 9 mph 1019.6mb 80f
10:40pm 6 11 mph 1019.6mb 80f
10:35pm 5 9 mph 1019.6mb 80f
10:30pm 5 9 mph 1019.6mb 80f
10:25pm 3 7 mph 1019.7mb 80f
10:20pm 3 7 mph 1019.7mb 80f
10:15pm 5 8 mph 1019.6mb 80f
10:10pm 5 9 mph 1019.5mb 81f
10:05pm 5 10 mph 1019.4mb 80f
10:00pm 5 9 mph 1019.4mb 80f
9:55pm 6 9 mph 1019.4mb 80f
9:50pm 6 11 mph 1019.4mb 80f
9:45pm 5 9 mph 1019.4mb 81f
9:40pm 3 9 mph 1019.4mb 81f
9:35pm 5 9 mph 1019.4mb 81f
9:30pm 5 10 mph 1019.4mb 81f
9:25pm 5 8 mph 1019.4mb 81f
9:20pm 5 8 mph 1019.4mb 81f
9:15pm 5 10 mph 1019.3mb 81f
9:10pm 7 11 mph 1019.2mb 81f
9:05pm 8 15 mph 1019.1mb 81f
9:00pm 9 15 mph 1019.1mb 81f
8:55pm 9 15 mph 1018.9mb 81f
8:50pm 7 14 mph 1018.9mb 81f
8:45pm 7 11 mph 1018.8mb 81f
8:40pm 7 13 mph 1018.8mb 81f
8:35pm 8 14 mph 1018.8mb 82f
8:30pm 7 14 mph 1018.8mb 81f
8:25pm 7 14 mph 1018.7mb 82f
8:20pm 8 15 mph 1018.6mb 82f
8:15pm 9 16 mph 1018.6mb 82f
8:10pm 8 13 mph 1018.6mb 82f
8:05pm 7 14 mph 1018.6mb 82f
8:00pm 8 17 mph 1018.5mb 82f
7:55pm 8 13 mph 1018.5mb 82f
7:50pm 8 16 mph 1018.4mb 82f
7:45pm 8 16 mph 1018.3mb 82f
7:40pm 8 13 mph 1018.3mb 82f
7:30pm 6 13 mph 1018.1mb 82f
7:25pm 8 15 mph 1018.1mb 82f
7:20pm 8 15 mph 1017.9mb 83f
7:15pm 9 16 mph 1017.8mb 83f
7:10pm 8 15 mph 1017.8mb 83f
7:05pm 7 14 mph 1017.8mb 83f
7:00pm 7 13 mph 1017.7mb 83f
6:55pm  -  mph - 83f
6:50pm 7 10 mph 1017.7mb 84f
6:45pm 7 13 mph 1017.7mb 84f
6:40pm 8 15 mph 1017.7mb 84f
6:35pm 9 17 mph 1017.7mb 84f
6:30pm 8 16 mph 1017.7mb 84f
6:25pm 9 17 mph 1017.7mb 85f
6:20pm 8 15 mph 1017.6mb 85f
6:15pm 9 18 mph 1017.5mb 85f
6:10pm 8 16 mph 1017.5mb 85f
6:05pm 9 17 mph 1017.4mb 85f
6:00pm 10 18 mph 1017.4mb 85f
5:55pm 9 18 mph 1017.3mb 85f
5:50pm 10 16 mph 1017.2mb 85f
5:45pm 8 17 mph 1017.2mb 86f
5:40pm 8 14 mph 1017.2mb 86f
5:35pm 8 17 mph 1017.2mb 86f
5:30pm 8 13 mph 1017.2mb 86f
5:25pm 7 15 mph 1017.2mb 86f
5:20pm 9 15 mph 1017.2mb 86f
5:15pm 9 16 mph 1017.2mb 86f
5:10pm 9 16 mph 1017.2mb 86f
5:05pm 8 16 mph 1017.2mb 86f
5:00pm 7 14 mph 1017.2mb 87f
4:55pm 3 7 mph 1017.2mb 87f
4:50pm 2 8 mph 1017.2mb 87f
4:45pm 3 8 mph 1017.2mb 86f
4:40pm 5 8 mph 1017.4mb 87f
4:35pm 2 6 mph 1017.3mb 88f
4:30pm 3 9 mph 1017.2mb 89f
4:25pm 3 7 mph 1017.2mb 89f
4:20pm 3 8 mph 1017.2mb 89f
4:15pm 2 9 mph 1017.2mb 89f
4:10pm 3 9 mph 1017.2mb 89f
4:05pm 3 8 mph 1017.2mb 89f
4:00pm 6 11 mph 1017.2mb 89f
3:55pm 5 10 mph 1017.3mb 89f
3:50pm 6 14 mph 1017.3mb 88f
3:45pm 6 15 mph 1017.4mb 88f
3:40pm 8 14 mph 1017.4mb 87f